createdAt,value
2022-10-02T01:35:09.259Z,965.93
2022-10-02T01:36:09.261Z,965.88
2022-10-02T01:37:09.145Z,965.81
2022-10-02T01:38:09.049Z,965.82
2022-10-02T01:39:09.083Z,965.84
2022-10-02T01:40:08.914Z,965.97
2022-10-02T01:41:08.849Z,965.97
2022-10-02T14:25:12.781Z,964.61
2022-10-02T14:26:12.669Z,964.64
2022-10-02T14:37:19.234Z,964.84
2022-10-02T14:38:18.743Z,964.82
2022-10-02T14:39:18.611Z,964.86
2022-10-02T14:40:18.805Z,964.84
2022-10-02T14:45:42.639Z,964.86
2022-10-02T14:46:42.517Z,964.89
2022-10-02T14:59:18.930Z,964.88
2022-10-02T15:00:18.546Z,964.90
2022-10-02T17:52:11.716Z,966.59
2022-10-02T17:53:11.616Z,966.61
2022-10-02T18:15:09.105Z,966.77
2022-10-02T18:16:08.931Z,966.75
2022-10-02T18:47:07.965Z,966.78
2022-10-02T18:48:08.065Z,966.80
2022-10-02T19:48:12.407Z,967.19
2022-10-02T19:49:12.026Z,967.17
2022-10-02T20:15:38.122Z,967.70
2022-10-02T20:16:38.137Z,967.67
2022-10-02T20:46:07.426Z,967.75
2022-10-02T20:47:07.169Z,967.78
2022-10-02T20:48:06.941Z,967.75
2022-10-02T20:49:09.150Z,967.78
2022-10-02T20:50:06.695Z,967.81
2022-10-02T20:51:06.629Z,967.82
2022-10-02T20:52:06.538Z,967.88
2022-10-02T20:53:06.494Z,967.92
2022-10-02T20:54:06.410Z,967.98
2022-10-02T20:55:06.373Z,968.01
2022-10-02T20:56:06.312Z,968.02
2022-10-02T20:57:06.224Z,968.05
2022-10-02T20:58:06.149Z,968.03
2022-10-02T20:59:06.100Z,967.98
2022-10-02T21:00:06.023Z,968.00
2022-10-02T21:01:06.023Z,967.97
2022-10-02T21:02:05.946Z,967.97
2022-10-02T21:03:05.845Z,967.99
2022-10-02T21:04:05.814Z,967.96
2022-10-02T21:05:05.728Z,967.97
2022-10-02T21:06:05.647Z,967.98
2022-10-02T21:07:06.906Z,968.00
2022-10-02T21:08:05.513Z,968.01
2022-10-02T21:09:05.491Z,967.99
2022-10-02T21:10:05.377Z,968.01
2022-10-02T21:11:05.322Z,968.00
2022-10-02T21:12:05.318Z,968.04
2022-10-02T21:13:05.201Z,968.01
2022-10-02T21:14:05.127Z,968.07
2022-10-02T21:15:05.085Z,968.07
2022-10-02T21:16:05.005Z,968.07
2022-10-02T21:17:05.005Z,968.10
2022-10-02T21:18:04.868Z,968.09
2022-10-02T21:19:04.800Z,968.12
2022-10-02T21:20:04.747Z,968.12
2022-10-02T21:21:04.674Z,968.14
2022-10-02T21:22:04.641Z,968.15
2022-10-02T21:23:04.547Z,968.17
2022-10-02T21:24:04.535Z,968.18
2022-10-02T21:25:04.431Z,968.18
2022-10-02T21:26:04.400Z,968.20
2022-10-02T21:27:04.329Z,968.21
2022-10-02T21:28:04.279Z,968.24
2022-10-02T21:29:04.174Z,968.23
2022-10-02T21:30:04.101Z,968.21
2022-10-02T21:31:04.115Z,968.23
2022-10-02T21:32:03.998Z,968.25
2022-10-02T21:33:03.911Z,968.25
2022-10-02T21:34:03.876Z,968.27
2022-10-02T21:35:03.795Z,968.29
2022-10-02T21:36:03.751Z,968.35
2022-10-02T21:37:03.647Z,968.36
2022-10-02T21:38:03.618Z,968.43
2022-10-02T21:39:03.563Z,968.42
2022-10-02T21:40:03.462Z,968.43
2022-10-02T21:41:03.406Z,968.40
2022-10-02T21:42:03.341Z,968.42
2022-10-02T21:43:03.268Z,968.42
2022-10-02T21:44:03.216Z,968.42
2022-10-02T21:45:04.364Z,968.44
2022-10-02T21:46:03.121Z,968.44
2022-10-02T21:47:03.038Z,968.49
2022-10-02T21:48:02.964Z,968.54
2022-10-02T21:49:02.877Z,968.55
2022-10-02T21:50:02.819Z,968.56
2022-10-02T21:51:02.809Z,968.60
2022-10-02T21:52:02.713Z,968.63
2022-10-02T21:53:02.622Z,968.58
2022-10-02T21:54:02.586Z,968.61
2022-10-02T21:55:02.540Z,968.59
2022-10-02T21:56:02.439Z,968.64
2022-10-02T21:57:02.402Z,968.64
2022-10-02T21:58:02.349Z,968.72
2022-10-02T21:59:02.285Z,968.70
2022-10-02T22:00:02.247Z,968.73
2022-10-02T22:01:02.206Z,968.77
2022-10-02T22:02:08.819Z,968.78
2022-10-02T22:03:02.035Z,968.80
2022-10-02T22:04:02.047Z,968.75
2022-10-02T22:05:01.960Z,968.77
2022-10-02T22:06:01.979Z,968.78
2022-10-02T22:07:01.784Z,968.82
2022-10-02T22:08:01.751Z,968.82
2022-10-02T22:09:01.609Z,968.85
2022-10-02T22:10:01.597Z,968.85
2022-10-02T22:11:01.629Z,968.89
2022-10-02T22:12:01.536Z,968.90
2022-10-02T22:13:01.434Z,968.90
2022-10-02T22:14:01.402Z,968.93
2022-10-02T22:15:01.323Z,968.94
2022-10-02T22:16:01.297Z,968.95
2022-10-02T22:17:01.101Z,968.97
2022-10-02T22:18:01.057Z,968.95
2022-10-02T22:19:01.032Z,968.94
2022-10-02T22:20:01.144Z,968.91
2022-10-02T22:21:01.033Z,968.89
2022-10-02T22:22:00.922Z,968.92
2022-10-02T22:23:00.841Z,968.90
2022-10-02T22:24:00.735Z,968.92
2022-10-02T22:25:00.693Z,968.94
2022-10-02T22:26:00.674Z,968.93
2022-10-02T22:27:00.522Z,968.96
2022-10-02T22:28:00.613Z,968.99
2022-10-02T22:29:00.445Z,969.03
2022-10-02T22:30:00.387Z,969.00
2022-10-02T22:31:00.436Z,969.04
2022-10-02T22:32:00.308Z,969.06
2022-10-02T22:33:00.180Z,969.06
2022-10-02T22:34:00.096Z,969.08
2022-10-02T22:35:00.014Z,969.06
2022-10-02T22:35:59.920Z,969.10
2022-10-02T22:36:59.950Z,969.07
2022-10-02T22:37:59.779Z,969.05
2022-10-02T22:38:59.770Z,969.07
2022-10-02T22:39:59.717Z,969.10
2022-10-02T22:40:59.550Z,969.13
2022-10-02T22:41:59.581Z,969.17
2022-10-02T22:42:59.445Z,969.16
2022-10-02T22:43:59.470Z,969.17
2022-10-02T22:44:59.375Z,969.20
2022-10-02T22:45:59.401Z,969.12
2022-10-02T22:46:59.280Z,969.18
2022-10-02T22:47:59.149Z,969.19
2022-10-02T22:48:59.108Z,969.17
2022-10-02T22:49:59.044Z,969.22
2022-10-02T22:50:58.943Z,969.24
2022-10-02T22:52:00.363Z,969.24
2022-10-02T22:52:58.828Z,969.26
2022-10-02T22:53:58.774Z,969.33
2022-10-02T22:54:58.710Z,969.29
2022-10-02T22:55:58.614Z,969.34
2022-10-02T22:56:58.555Z,969.35
2022-10-02T22:57:58.507Z,969.36
2022-10-02T22:58:58.439Z,969.36
2022-10-02T22:59:58.353Z,969.41
2022-10-02T23:00:58.319Z,969.39
2022-10-02T23:01:58.375Z,969.42
2022-10-02T23:02:58.288Z,969.42
2022-10-02T23:03:58.142Z,969.46
2022-10-02T23:04:58.060Z,969.46
2022-10-02T23:05:57.973Z,969.52
2022-10-02T23:06:57.920Z,969.46
2022-10-02T23:07:57.916Z,969.46
2022-10-02T23:08:57.827Z,969.47
2022-10-02T23:09:57.781Z,969.45
2022-10-02T23:10:57.699Z,969.48
2022-10-02T23:11:57.584Z,969.47
2022-10-02T23:12:57.593Z,969.49
2022-10-02T23:13:57.510Z,969.49
2022-10-02T23:14:57.435Z,969.49
2022-10-02T23:15:57.451Z,969.50
2022-10-02T23:16:57.258Z,969.58
2022-10-02T23:17:57.186Z,969.56
2022-10-02T23:18:57.123Z,969.56
2022-10-02T23:19:57.120Z,969.53
2022-10-02T23:20:57.013Z,969.59
2022-10-02T23:21:57.016Z,969.60
2022-10-02T23:22:56.908Z,969.56
2022-10-02T23:23:56.887Z,969.58
2022-10-02T23:24:56.771Z,969.57
2022-10-02T23:25:56.695Z,969.55
2022-10-02T23:26:56.599Z,969.55
2022-10-02T23:27:56.562Z,969.55
2022-10-02T23:28:56.480Z,969.56
2022-10-02T23:29:56.554Z,969.56
2022-10-02T23:30:56.435Z,969.59
2022-10-02T23:31:56.322Z,969.63
2022-10-02T23:32:56.224Z,969.64
2022-10-02T23:33:56.213Z,969.66
2022-10-02T23:34:56.138Z,969.61
2022-10-02T23:35:56.044Z,969.62
2022-10-02T23:36:55.977Z,969.59
2022-10-02T23:37:55.924Z,969.63
2022-10-02T23:38:55.847Z,969.63
2022-10-02T23:39:55.797Z,969.62
2022-10-02T23:40:55.715Z,969.62
2022-10-02T23:41:55.686Z,969.64
2022-10-02T23:42:55.632Z,969.64
2022-10-02T23:43:55.524Z,969.68
2022-10-02T23:44:55.442Z,969.66
2022-10-02T23:45:55.415Z,969.66
2022-10-02T23:46:55.364Z,969.65
2022-10-02T23:47:55.302Z,969.64
2022-10-02T23:48:55.224Z,969.62
2022-10-02T23:49:55.197Z,969.65
2022-10-02T23:50:55.113Z,969.66
2022-10-02T23:51:55.104Z,969.68
2022-10-02T23:52:54.991Z,969.66
2022-10-02T23:53:54.928Z,969.67
2022-10-02T23:54:54.825Z,969.68
2022-10-02T23:55:54.819Z,969.67
2022-10-02T23:56:54.662Z,969.66
2022-10-02T23:57:54.668Z,969.67
2022-10-02T23:58:54.594Z,969.67
